UAE332 OMDB-OPKC
Flight info
| Callsign | UAE332 |
|---|---|
| Flight time | 1h 33m |
| Altitude | 39000 |
| Route | IVURO1F IVURO M428 TARBO Z440 DAMUM B524 ALPOR G216 LAKIV LAKIV1C |
| Aircraft | B77W/H-SDE1E2E3FGHIJ2J3J4J5M1RWXY/LB1D1 |
Departure
| Time | 2026-04-22 11:31 |
|---|---|
| Airport | Dubai International Airport (OMDB) |
Arrival
| Time | 2026-04-22 13:04 |
|---|---|
| Airport | Jinnah International Airport (OPKC) |
| Time | Latitude | Longitude | Altitude | Speed | Heading |
|---|---|---|---|---|---|
| 2026-04-22 10:44 | 25.24925 | 55.35831 | 27 ft | 0 kts | 31° |
| 2026-04-22 11:12 | 25.24912 | 55.35822 | 26 ft | 4 kts | 31° |
| 2026-04-22 11:12 | 25.24889 | 55.35807 | 24 ft | 4 kts | 37° |
| 2026-04-22 11:13 | 25.24874 | 55.35795 | 26 ft | 4 kts | 2° |
| 2026-04-22 11:13 | 25.24853 | 55.35797 | 25 ft | 4 kts | 337° |
| 2026-04-22 11:13 | 25.24836 | 55.35810 | 26 ft | 4 kts | 303° |
| 2026-04-22 11:13 | 25.24823 | 55.35834 | 25 ft | 2 kts | 301° |
| 2026-04-22 11:14 | 25.24822 | 55.35835 | 25 ft | 0 kts | 301° |
| 2026-04-22 11:18 | 25.24823 | 55.35834 | 25 ft | 2 kts | 301° |
| 2026-04-22 11:18 | 25.24851 | 55.35784 | 25 ft | 10 kts | 302° |
| 2026-04-22 11:18 | 25.24891 | 55.35720 | 27 ft | 10 kts | 306° |
| 2026-04-22 11:18 | 25.24932 | 55.35654 | 27 ft | 11 kts | 304° |
| 2026-04-22 11:19 | 25.24976 | 55.35579 | 27 ft | 12 kts | 301° |
| 2026-04-22 11:19 | 25.25031 | 55.35482 | 26 ft | 17 kts | 302° |
| 2026-04-22 11:19 | 25.25093 | 55.35371 | 31 ft | 17 kts | 301° |
| 2026-04-22 11:19 | 25.25158 | 55.35263 | 29 ft | 17 kts | 307° |
| 2026-04-22 11:20 | 25.25227 | 55.35158 | 29 ft | 17 kts | 302° |
| 2026-04-22 11:20 | 25.25288 | 55.35046 | 31 ft | 17 kts | 302° |
| 2026-04-22 11:20 | 25.25351 | 55.34939 | 29 ft | 16 kts | 309° |
| 2026-04-22 11:20 | 25.25450 | 55.34900 | 27 ft | 16 kts | 15° |
| 2026-04-22 11:21 | 25.25548 | 55.34960 | 31 ft | 16 kts | 31° |
| 2026-04-22 11:21 | 25.25606 | 55.34997 | 29 ft | 0 kts | 30° |
| 2026-04-22 11:22 | 25.25608 | 55.34999 | 29 ft | 3 kts | 30° |
| 2026-04-22 11:22 | 25.25670 | 55.35040 | 29 ft | 15 kts | 31° |
| 2026-04-22 11:22 | 25.25684 | 55.35051 | 29 ft | 4 kts | 32° |
| 2026-04-22 11:22 | 25.25734 | 55.35115 | 30 ft | 15 kts | 80° |
| 2026-04-22 11:23 | 25.25763 | 55.35215 | 32 ft | 14 kts | 39° |
| 2026-04-22 11:23 | 25.25845 | 55.35272 | 30 ft | 12 kts | 32° |
| 2026-04-22 11:23 | 25.25901 | 55.35309 | 29 ft | 0 kts | 28° |
| 2026-04-22 11:23 | 25.25917 | 55.35319 | 30 ft | 8 kts | 33° |
| 2026-04-22 11:24 | 25.25988 | 55.35408 | 30 ft | 18 kts | 69° |
| 2026-04-22 11:24 | 25.25983 | 55.35542 | 30 ft | 18 kts | 112° |
| 2026-04-22 11:24 | 25.25921 | 55.35662 | 30 ft | 18 kts | 121° |
| 2026-04-22 11:24 | 25.25854 | 55.35779 | 29 ft | 18 kts | 121° |
| 2026-04-22 11:25 | 25.25791 | 55.35898 | 26 ft | 18 kts | 120° |
| 2026-04-22 11:25 | 25.25725 | 55.36014 | 26 ft | 18 kts | 121° |
| 2026-04-22 11:25 | 25.25659 | 55.36132 | 26 ft | 18 kts | 120° |
| 2026-04-22 11:25 | 25.25594 | 55.36250 | 27 ft | 18 kts | 122° |
| 2026-04-22 11:26 | 25.25528 | 55.36368 | 27 ft | 18 kts | 122° |
| 2026-04-22 11:26 | 25.25463 | 55.36486 | 27 ft | 18 kts | 121° |
| 2026-04-22 11:26 | 25.25397 | 55.36604 | 27 ft | 18 kts | 123° |
| 2026-04-22 11:26 | 25.25333 | 55.36722 | 27 ft | 18 kts | 123° |
| 2026-04-22 11:27 | 25.25268 | 55.36839 | 27 ft | 18 kts | 121° |
| 2026-04-22 11:27 | 25.25202 | 55.36957 | 27 ft | 18 kts | 121° |
| 2026-04-22 11:27 | 25.25137 | 55.37075 | 29 ft | 18 kts | 121° |
| 2026-04-22 11:27 | 25.25073 | 55.37189 | 30 ft | 16 kts | 121° |
| 2026-04-22 11:28 | 25.25015 | 55.37293 | 32 ft | 14 kts | 121° |
| 2026-04-22 11:28 | 25.24965 | 55.37383 | 34 ft | 14 kts | 121° |
| 2026-04-22 11:28 | 25.24916 | 55.37473 | 36 ft | 14 kts | 120° |
| 2026-04-22 11:28 | 25.24866 | 55.37564 | 39 ft | 14 kts | 122° |
| 2026-04-22 11:29 | 25.24816 | 55.37654 | 41 ft | 14 kts | 122° |
| 2026-04-22 11:29 | 25.24765 | 55.37744 | 43 ft | 14 kts | 122° |
| 2026-04-22 11:29 | 25.24717 | 55.37831 | 45 ft | 13 kts | 120° |
| 2026-04-22 11:29 | 25.24680 | 55.37918 | 46 ft | 13 kts | 98° |
| 2026-04-22 11:30 | 25.24728 | 55.37990 | 47 ft | 12 kts | 35° |
| 2026-04-22 11:30 | 25.24808 | 55.38011 | 46 ft | 12 kts | 339° |
| 2026-04-22 11:30 | 25.24854 | 55.37954 | 45 ft | 0 kts | 301° |
| 2026-04-22 11:30 | 25.24923 | 55.37829 | 42 ft | 63 kts | 302° |
| 2026-04-22 11:31 | 25.25343 | 55.37079 | 28 ft | 163 kts | 303° |
| 2026-04-22 11:31 | 25.26034 | 55.35815 | 415 ft | 206 kts | 303° |
| 2026-04-22 11:31 | 25.26780 | 55.34458 | 1417 ft | 210 kts | 304° |
| 2026-04-22 11:31 | 25.27565 | 55.33051 | 2364 ft | 216 kts | 303° |
| 2026-04-22 11:32 | 25.28395 | 55.31561 | 2896 ft | 243 kts | 301° |
| 2026-04-22 11:32 | 25.29486 | 55.30054 | 3281 ft | 267 kts | 324° |
| 2026-04-22 11:32 | 25.31261 | 55.29400 | 4162 ft | 275 kts | 355° |
| 2026-04-22 11:32 | 25.33206 | 55.29441 | 4968 ft | 282 kts | 1° |
| 2026-04-22 11:33 | 25.35205 | 55.29532 | 5905 ft | 288 kts | 1° |
| 2026-04-22 11:33 | 25.37213 | 55.29615 | 6666 ft | 292 kts | 0° |
| 2026-04-22 11:33 | 25.39206 | 55.29924 | 7398 ft | 299 kts | 20° |
| 2026-04-22 11:33 | 25.40946 | 55.31208 | 8274 ft | 304 kts | 46° |
| 2026-04-22 11:34 | 25.42304 | 55.33018 | 9080 ft | 310 kts | 51° |
| 2026-04-22 11:34 | 25.43662 | 55.34907 | 9946 ft | 314 kts | 51° |
| 2026-04-22 11:34 | 25.45051 | 55.36846 | 10541 ft | 332 kts | 51° |
| 2026-04-22 11:34 | 25.46566 | 55.38938 | 10762 ft | 363 kts | 50° |
| 2026-04-22 11:35 | 25.48191 | 55.41165 | 11077 ft | 387 kts | 50° |
| 2026-04-22 11:35 | 25.49883 | 55.43539 | 11824 ft | 397 kts | 52° |
| 2026-04-22 11:35 | 25.51440 | 55.46060 | 12602 ft | 399 kts | 64° |
| 2026-04-22 11:35 | 25.52230 | 55.49014 | 12767 ft | 403 kts | 86° |
| 2026-04-22 11:36 | 25.52003 | 55.52084 | 12773 ft | 400 kts | 106° |
| 2026-04-22 11:36 | 25.50973 | 55.54920 | 12763 ft | 393 kts | 122° |
| 2026-04-22 11:36 | 25.49512 | 55.57480 | 12772 ft | 394 kts | 125° |
| 2026-04-22 11:36 | 25.48000 | 55.60021 | 12764 ft | 396 kts | 126° |
| 2026-04-22 11:37 | 25.46587 | 55.62598 | 12766 ft | 398 kts | 120° |
| 2026-04-22 11:37 | 25.45452 | 55.65409 | 12759 ft | 400 kts | 111° |
| 2026-04-22 11:37 | 25.44603 | 55.68355 | 13270 ft | 405 kts | 109° |
| 2026-04-22 11:37 | 25.43770 | 55.71351 | 14266 ft | 407 kts | 109° |
| 2026-04-22 11:38 | 25.42930 | 55.74354 | 15201 ft | 410 kts | 109° |
| 2026-04-22 11:38 | 25.42074 | 55.77388 | 16095 ft | 416 kts | 109° |
| 2026-04-22 11:38 | 25.40312 | 55.83586 | 17811 ft | 428 kts | 109° |
| 2026-04-22 11:39 | 25.39408 | 55.86747 | 18581 ft | 434 kts | 109° |
| 2026-04-22 11:39 | 25.38505 | 55.89904 | 19304 ft | 439 kts | 109° |
| 2026-04-22 11:39 | 25.37571 | 55.93159 | 20021 ft | 446 kts | 109° |
| 2026-04-22 11:39 | 25.36623 | 55.96457 | 20733 ft | 452 kts | 109° |
| 2026-04-22 11:40 | 25.35663 | 55.99798 | 21460 ft | 458 kts | 109° |
| 2026-04-22 11:40 | 25.34693 | 56.03170 | 22135 ft | 464 kts | 109° |
| 2026-04-22 11:40 | 25.33704 | 56.06605 | 22807 ft | 470 kts | 109° |
| 2026-04-22 11:40 | 25.32705 | 56.10069 | 23408 ft | 477 kts | 109° |
| 2026-04-22 11:41 | 25.31689 | 56.13591 | 23965 ft | 482 kts | 109° |
| 2026-04-22 11:41 | 25.30665 | 56.17139 | 24571 ft | 485 kts | 109° |
| 2026-04-22 11:41 | 25.29650 | 56.20656 | 25184 ft | 489 kts | 109° |
| 2026-04-22 11:41 | 25.28608 | 56.24263 | 25779 ft | 492 kts | 109° |
| 2026-04-22 11:42 | 25.27561 | 56.27877 | 26325 ft | 496 kts | 109° |
| 2026-04-22 11:42 | 25.26863 | 56.30284 | 26648 ft | 500 kts | 109° |
| 2026-04-22 11:42 | 25.25792 | 56.33974 | 27187 ft | 504 kts | 109° |
| 2026-04-22 11:42 | 25.24717 | 56.37679 | 27731 ft | 508 kts | 109° |
| 2026-04-22 11:43 | 25.23631 | 56.41418 | 28267 ft | 511 kts | 109° |
| 2026-04-22 11:43 | 25.22538 | 56.45174 | 28755 ft | 515 kts | 109° |
| 2026-04-22 11:43 | 25.21434 | 56.48966 | 29215 ft | 520 kts | 109° |
| 2026-04-22 11:43 | 25.20323 | 56.52781 | 29646 ft | 524 kts | 109° |
| 2026-04-22 11:44 | 25.19215 | 56.56573 | 30045 ft | 527 kts | 110° |
| 2026-04-22 11:44 | 25.17971 | 56.60391 | 30465 ft | 526 kts | 114° |
| 2026-04-22 11:44 | 25.16581 | 56.64128 | 30985 ft | 524 kts | 114° |
| 2026-04-22 11:44 | 25.15165 | 56.67832 | 31542 ft | 522 kts | 115° |
| 2026-04-22 11:45 | 25.13760 | 56.71477 | 32065 ft | 521 kts | 115° |
| 2026-04-22 11:45 | 25.12342 | 56.75162 | 32518 ft | 521 kts | 114° |
| 2026-04-22 11:45 | 25.10935 | 56.78842 | 32970 ft | 521 kts | 114° |
| 2026-04-22 11:45 | 25.09529 | 56.82536 | 33446 ft | 520 kts | 114° |
| 2026-04-22 11:46 | 25.08133 | 56.86216 | 33906 ft | 519 kts | 114° |
| 2026-04-22 11:46 | 25.06740 | 56.89894 | 34229 ft | 521 kts | 114° |
| 2026-04-22 11:46 | 25.05338 | 56.93592 | 34499 ft | 523 kts | 114° |
| 2026-04-22 11:46 | 25.03928 | 56.97309 | 34767 ft | 525 kts | 114° |
| 2026-04-22 11:47 | 25.02515 | 57.01032 | 35074 ft | 526 kts | 114° |
| 2026-04-22 11:47 | 25.01112 | 57.04719 | 35354 ft | 528 kts | 114° |
| 2026-04-22 11:47 | 24.99688 | 57.08460 | 35647 ft | 529 kts | 114° |
| 2026-04-22 11:47 | 24.98257 | 57.12215 | 35935 ft | 530 kts | 113° |
| 2026-04-22 11:48 | 24.96823 | 57.15974 | 36229 ft | 532 kts | 113° |
| 2026-04-22 11:48 | 24.95388 | 57.19733 | 36510 ft | 533 kts | 113° |
| 2026-04-22 11:48 | 24.93963 | 57.23463 | 36777 ft | 534 kts | 113° |
| 2026-04-22 11:48 | 24.92514 | 57.27251 | 37072 ft | 535 kts | 113° |
| 2026-04-22 11:49 | 24.91068 | 57.31030 | 37342 ft | 536 kts | 113° |
| 2026-04-22 11:49 | 24.89615 | 57.34822 | 37602 ft | 537 kts | 113° |
| 2026-04-22 11:49 | 24.88158 | 57.38621 | 37860 ft | 538 kts | 113° |
| 2026-04-22 11:49 | 24.86702 | 57.42416 | 38138 ft | 538 kts | 113° |
| 2026-04-22 11:50 | 24.85257 | 57.46176 | 38401 ft | 539 kts | 113° |
| 2026-04-22 11:50 | 24.83790 | 57.49992 | 38617 ft | 540 kts | 113° |
| 2026-04-22 11:50 | 24.80836 | 57.57666 | 38752 ft | 544 kts | 113° |
| 2026-04-22 11:51 | 24.77900 | 57.65281 | 38758 ft | 541 kts | 113° |
| 2026-04-22 11:51 | 24.74972 | 57.72868 | 38765 ft | 536 kts | 112° |
| 2026-04-22 11:52 | 24.72735 | 57.80658 | 38780 ft | 532 kts | 101° |
| 2026-04-22 11:52 | 24.71606 | 57.88630 | 38789 ft | 530 kts | 95° |
| 2026-04-22 11:53 | 24.70660 | 57.96703 | 38783 ft | 531 kts | 95° |
| 2026-04-22 11:53 | 24.69676 | 58.04784 | 38779 ft | 533 kts | 96° |
| 2026-04-22 11:54 | 24.68656 | 58.12821 | 38771 ft | 534 kts | 96° |
| 2026-04-22 11:54 | 24.67614 | 58.20916 | 38778 ft | 535 kts | 96° |
| 2026-04-22 11:55 | 24.66567 | 58.29028 | 38771 ft | 535 kts | 96° |
| 2026-04-22 11:55 | 24.65519 | 58.37140 | 38772 ft | 535 kts | 96° |
| 2026-04-22 11:56 | 24.64467 | 58.45252 | 38774 ft | 535 kts | 96° |
| 2026-04-22 11:56 | 24.63417 | 58.53305 | 38775 ft | 535 kts | 96° |
| 2026-04-22 11:57 | 24.62356 | 58.61412 | 38773 ft | 534 kts | 96° |
| 2026-04-22 11:57 | 24.61300 | 58.69447 | 38773 ft | 533 kts | 96° |
| 2026-04-22 11:58 | 24.60235 | 58.77522 | 38772 ft | 533 kts | 96° |
| 2026-04-22 11:58 | 24.59167 | 58.85580 | 38774 ft | 532 kts | 96° |
| 2026-04-22 11:59 | 24.58096 | 58.93626 | 38777 ft | 531 kts | 96° |
| 2026-04-22 11:59 | 24.57027 | 59.01628 | 38777 ft | 531 kts | 96° |
| 2026-04-22 12:00 | 24.55952 | 59.09646 | 38779 ft | 530 kts | 97° |
| 2026-04-22 12:00 | 24.54873 | 59.17656 | 38781 ft | 530 kts | 97° |
| 2026-04-22 12:01 | 24.53593 | 59.25622 | 38783 ft | 530 kts | 101° |
| 2026-04-22 12:01 | 24.51902 | 59.33496 | 38777 ft | 530 kts | 102° |
| 2026-04-22 12:02 | 24.50177 | 59.41342 | 38780 ft | 530 kts | 102° |
| 2026-04-22 12:02 | 24.48478 | 59.49209 | 38782 ft | 529 kts | 102° |
| 2026-04-22 12:03 | 24.46796 | 59.57080 | 38782 ft | 528 kts | 102° |
| 2026-04-22 12:03 | 24.45126 | 59.64877 | 38781 ft | 527 kts | 102° |
| 2026-04-22 12:04 | 24.43438 | 59.72724 | 38779 ft | 527 kts | 102° |
| 2026-04-22 12:04 | 24.41753 | 59.80535 | 38783 ft | 526 kts | 102° |
| 2026-04-22 12:05 | 24.40072 | 59.88303 | 38786 ft | 525 kts | 102° |
| 2026-04-22 12:05 | 24.38378 | 59.96112 | 38782 ft | 524 kts | 102° |
| 2026-04-22 12:06 | 24.36686 | 60.03898 | 38784 ft | 524 kts | 102° |
| 2026-04-22 12:06 | 24.35002 | 60.11620 | 38784 ft | 523 kts | 102° |
| 2026-04-22 12:07 | 24.33298 | 60.19376 | 38782 ft | 522 kts | 102° |
| 2026-04-22 12:07 | 24.31600 | 60.27075 | 38784 ft | 521 kts | 102° |
| 2026-04-22 12:08 | 24.29895 | 60.34799 | 38783 ft | 520 kts | 102° |
| 2026-04-22 12:08 | 24.28188 | 60.42513 | 38787 ft | 519 kts | 102° |
| 2026-04-22 12:09 | 24.26482 | 60.50210 | 38785 ft | 519 kts | 102° |
| 2026-04-22 12:09 | 24.24782 | 60.57854 | 38786 ft | 518 kts | 102° |
| 2026-04-22 12:10 | 24.23072 | 60.65526 | 38786 ft | 517 kts | 102° |
| 2026-04-22 12:10 | 24.21374 | 60.73128 | 38786 ft | 516 kts | 102° |
| 2026-04-22 12:11 | 24.19660 | 60.80780 | 38786 ft | 516 kts | 102° |
| 2026-04-22 12:11 | 24.17945 | 60.88426 | 38791 ft | 516 kts | 102° |
| 2026-04-22 12:12 | 24.16240 | 60.96012 | 38789 ft | 516 kts | 102° |
| 2026-04-22 12:12 | 24.14521 | 61.03642 | 38789 ft | 515 kts | 102° |
| 2026-04-22 12:13 | 24.12798 | 61.11271 | 38790 ft | 515 kts | 102° |
| 2026-04-22 12:13 | 24.11072 | 61.18897 | 38790 ft | 516 kts | 102° |
| 2026-04-22 12:14 | 24.09353 | 61.26474 | 38796 ft | 515 kts | 102° |
| 2026-04-22 12:14 | 24.08436 | 61.34230 | 38798 ft | 512 kts | 89° |
| 2026-04-22 12:15 | 24.08941 | 61.41962 | 38799 ft | 507 kts | 78° |
| 2026-04-22 12:15 | 24.10129 | 61.49530 | 38801 ft | 507 kts | 77° |
| 2026-04-22 12:16 | 24.11318 | 61.57151 | 38798 ft | 507 kts | 78° |
| 2026-04-22 12:16 | 24.12444 | 61.64773 | 38795 ft | 507 kts | 78° |
| 2026-04-22 12:17 | 24.13554 | 61.72412 | 38800 ft | 507 kts | 78° |
| 2026-04-22 12:17 | 24.14657 | 61.79993 | 38798 ft | 507 kts | 78° |
| 2026-04-22 12:18 | 24.15720 | 61.87637 | 38800 ft | 507 kts | 79° |
| 2026-04-22 12:18 | 24.16745 | 61.95275 | 38800 ft | 506 kts | 79° |
| 2026-04-22 12:19 | 24.17762 | 62.02867 | 38802 ft | 506 kts | 79° |
| 2026-04-22 12:19 | 24.18787 | 62.10495 | 38801 ft | 505 kts | 79° |
| 2026-04-22 12:20 | 24.19805 | 62.18074 | 38804 ft | 505 kts | 79° |
| 2026-04-22 12:20 | 24.20826 | 62.25701 | 38803 ft | 505 kts | 79° |
| 2026-04-22 12:21 | 24.21841 | 62.33318 | 38802 ft | 504 kts | 79° |
| 2026-04-22 12:21 | 24.22845 | 62.40884 | 38802 ft | 504 kts | 79° |
| 2026-04-22 12:22 | 24.23850 | 62.48494 | 38807 ft | 504 kts | 79° |
| 2026-04-22 12:22 | 24.24852 | 62.56102 | 38799 ft | 504 kts | 79° |
| 2026-04-22 12:23 | 24.25850 | 62.63715 | 38801 ft | 504 kts | 79° |
| 2026-04-22 12:23 | 24.26837 | 62.71272 | 38800 ft | 503 kts | 80° |
| 2026-04-22 12:24 | 24.27828 | 62.78884 | 38803 ft | 503 kts | 80° |
| 2026-04-22 12:24 | 24.28814 | 62.86496 | 38803 ft | 503 kts | 80° |
| 2026-04-22 12:25 | 24.29789 | 62.94050 | 38801 ft | 502 kts | 80° |
| 2026-04-22 12:25 | 24.30765 | 63.01641 | 38801 ft | 502 kts | 80° |
| 2026-04-22 12:26 | 24.31737 | 63.09234 | 38798 ft | 502 kts | 80° |
| 2026-04-22 12:26 | 24.32698 | 63.16766 | 38800 ft | 501 kts | 81° |
| 2026-04-22 12:27 | 24.33660 | 63.24343 | 38808 ft | 501 kts | 81° |
| 2026-04-22 12:27 | 24.34619 | 63.31923 | 38800 ft | 501 kts | 81° |
| 2026-04-22 12:28 | 24.35567 | 63.39448 | 38802 ft | 500 kts | 81° |
| 2026-04-22 12:28 | 24.36516 | 63.47013 | 38806 ft | 500 kts | 81° |
| 2026-04-22 12:29 | 24.37461 | 63.54575 | 38797 ft | 500 kts | 81° |
| 2026-04-22 12:29 | 24.38402 | 63.62137 | 38801 ft | 499 kts | 81° |
| 2026-04-22 12:30 | 24.39799 | 63.73427 | 38800 ft | 499 kts | 81° |
| 2026-04-22 12:31 | 24.40573 | 63.79708 | 38796 ft | 499 kts | 81° |
| 2026-04-22 12:31 | 24.41501 | 63.87271 | 38798 ft | 499 kts | 81° |
| 2026-04-22 12:32 | 24.42419 | 63.94779 | 38799 ft | 499 kts | 81° |
| 2026-04-22 12:32 | 24.43797 | 64.06120 | 38799 ft | 499 kts | 82° |
| 2026-04-22 12:33 | 24.44711 | 64.13680 | 38797 ft | 499 kts | 82° |
| 2026-04-22 12:33 | 24.45615 | 64.21183 | 38797 ft | 498 kts | 82° |
| 2026-04-22 12:34 | 24.46521 | 64.28741 | 38796 ft | 498 kts | 82° |
| 2026-04-22 12:34 | 24.47422 | 64.36289 | 38796 ft | 498 kts | 82° |
| 2026-04-22 12:35 | 24.48314 | 64.43789 | 38793 ft | 498 kts | 82° |
| 2026-04-22 12:35 | 24.49208 | 64.51342 | 38796 ft | 498 kts | 82° |
| 2026-04-22 12:36 | 24.50097 | 64.58892 | 38796 ft | 498 kts | 82° |
| 2026-04-22 12:36 | 24.50977 | 64.66389 | 38794 ft | 497 kts | 82° |
| 2026-04-22 12:37 | 24.51858 | 64.73933 | 38797 ft | 497 kts | 82° |
| 2026-04-22 12:37 | 24.52732 | 64.81443 | 38797 ft | 497 kts | 82° |
| 2026-04-22 12:38 | 24.53483 | 64.89006 | 38794 ft | 497 kts | 85° |
| 2026-04-22 12:38 | 24.54033 | 64.96534 | 38797 ft | 497 kts | 85° |
| 2026-04-22 12:39 | 24.54860 | 65.07889 | 38792 ft | 497 kts | 85° |
| 2026-04-22 12:40 | 24.55441 | 65.15456 | 38791 ft | 497 kts | 85° |
| 2026-04-22 12:40 | 24.55734 | 65.19244 | 38650 ft | 499 kts | 85° |
| 2026-04-22 12:40 | 24.56027 | 65.23034 | 37848 ft | 507 kts | 85° |
| 2026-04-22 12:40 | 24.56323 | 65.26887 | 37152 ft | 504 kts | 85° |
| 2026-04-22 12:41 | 24.56616 | 65.30719 | 36414 ft | 502 kts | 85° |
| 2026-04-22 12:41 | 24.56906 | 65.34536 | 35679 ft | 501 kts | 85° |
| 2026-04-22 12:41 | 24.57196 | 65.38362 | 34882 ft | 502 kts | 85° |
| 2026-04-22 12:41 | 24.57484 | 65.42190 | 34243 ft | 499 kts | 85° |
| 2026-04-22 12:42 | 24.57770 | 65.45982 | 33660 ft | 495 kts | 85° |
| 2026-04-22 12:42 | 24.58051 | 65.49743 | 33055 ft | 491 kts | 85° |
| 2026-04-22 12:42 | 24.58326 | 65.53416 | 32501 ft | 487 kts | 85° |
| 2026-04-22 12:42 | 24.58600 | 65.57110 | 31970 ft | 482 kts | 85° |
| 2026-04-22 12:43 | 24.58872 | 65.60774 | 31442 ft | 478 kts | 85° |
| 2026-04-22 12:43 | 24.59141 | 65.64407 | 30924 ft | 474 kts | 85° |
| 2026-04-22 12:43 | 24.59406 | 65.68013 | 30410 ft | 471 kts | 85° |
| 2026-04-22 12:43 | 24.59669 | 65.71586 | 29896 ft | 467 kts | 85° |
| 2026-04-22 12:44 | 24.59926 | 65.75094 | 29298 ft | 465 kts | 85° |
| 2026-04-22 12:44 | 24.60184 | 65.78632 | 28728 ft | 461 kts | 85° |
| 2026-04-22 12:44 | 24.60439 | 65.82136 | 28193 ft | 458 kts | 85° |
| 2026-04-22 12:44 | 24.60692 | 65.85619 | 27665 ft | 454 kts | 85° |
| 2026-04-22 12:45 | 24.60942 | 65.89078 | 27147 ft | 451 kts | 85° |
| 2026-04-22 12:45 | 24.61185 | 65.92454 | 26644 ft | 448 kts | 85° |
| 2026-04-22 12:45 | 24.61430 | 65.95859 | 26143 ft | 445 kts | 85° |
| 2026-04-22 12:45 | 24.61673 | 65.99251 | 25634 ft | 442 kts | 85° |
| 2026-04-22 12:46 | 24.61913 | 66.02614 | 25138 ft | 440 kts | 85° |
| 2026-04-22 12:46 | 24.62152 | 66.05970 | 24630 ft | 438 kts | 85° |
| 2026-04-22 12:46 | 24.62385 | 66.09260 | 24129 ft | 437 kts | 85° |
| 2026-04-22 12:46 | 24.62621 | 66.12589 | 23614 ft | 436 kts | 85° |
| 2026-04-22 12:47 | 24.62855 | 66.15908 | 23073 ft | 434 kts | 85° |
| 2026-04-22 12:47 | 24.63087 | 66.19213 | 22525 ft | 432 kts | 85° |
| 2026-04-22 12:47 | 24.63317 | 66.22498 | 22014 ft | 429 kts | 85° |
| 2026-04-22 12:47 | 24.63545 | 66.25757 | 21515 ft | 426 kts | 85° |
| 2026-04-22 12:48 | 24.63768 | 66.28960 | 21030 ft | 423 kts | 85° |
| 2026-04-22 12:48 | 24.63991 | 66.32175 | 20543 ft | 420 kts | 85° |
| 2026-04-22 12:48 | 24.64213 | 66.35375 | 20056 ft | 418 kts | 86° |
| 2026-04-22 12:48 | 24.64433 | 66.38566 | 19570 ft | 416 kts | 86° |
| 2026-04-22 12:49 | 24.64651 | 66.41734 | 19080 ft | 414 kts | 86° |
| 2026-04-22 12:49 | 24.64867 | 66.44886 | 18584 ft | 413 kts | 86° |
| 2026-04-22 12:49 | 24.65082 | 66.48039 | 18089 ft | 412 kts | 86° |
| 2026-04-22 12:49 | 24.65293 | 66.51131 | 17549 ft | 410 kts | 85° |
| 2026-04-22 12:50 | 24.65504 | 66.54249 | 17038 ft | 407 kts | 85° |
| 2026-04-22 12:50 | 24.65714 | 66.57347 | 16544 ft | 404 kts | 85° |
| 2026-04-22 12:50 | 24.65923 | 66.60435 | 16052 ft | 402 kts | 84° |
| 2026-04-22 12:50 | 24.66128 | 66.63487 | 15568 ft | 399 kts | 84° |
| 2026-04-22 12:51 | 24.66331 | 66.66491 | 15094 ft | 397 kts | 84° |
| 2026-04-22 12:51 | 24.66534 | 66.69508 | 14615 ft | 394 kts | 84° |
| 2026-04-22 12:51 | 24.66735 | 66.72510 | 14123 ft | 393 kts | 84° |
| 2026-04-22 12:51 | 24.66936 | 66.75506 | 13637 ft | 391 kts | 83° |
| 2026-04-22 12:52 | 24.67134 | 66.78479 | 13108 ft | 389 kts | 83° |
| 2026-04-22 12:52 | 24.67330 | 66.81440 | 12611 ft | 386 kts | 83° |
| 2026-04-22 12:52 | 24.67524 | 66.84373 | 12123 ft | 382 kts | 83° |
| 2026-04-22 12:52 | 24.67714 | 66.87244 | 11652 ft | 379 kts | 83° |
| 2026-04-22 12:53 | 24.67904 | 66.90130 | 11165 ft | 376 kts | 84° |
| 2026-04-22 12:53 | 24.68091 | 66.92985 | 10706 ft | 372 kts | 83° |
| 2026-04-22 12:53 | 24.68277 | 66.95822 | 10367 ft | 366 kts | 84° |
| 2026-04-22 12:53 | 24.68454 | 66.98532 | 10193 ft | 354 kts | 84° |
| 2026-04-22 12:54 | 24.68626 | 67.01194 | 10041 ft | 343 kts | 84° |
| 2026-04-22 12:54 | 24.68813 | 67.03771 | 9885 ft | 328 kts | 79° |
| 2026-04-22 12:54 | 24.69488 | 67.06107 | 9680 ft | 315 kts | 60° |
| 2026-04-22 12:54 | 24.70583 | 67.08146 | 9474 ft | 307 kts | 57° |
| 2026-04-22 12:55 | 24.71680 | 67.10127 | 9233 ft | 295 kts | 57° |
| 2026-04-22 12:55 | 24.72711 | 67.11996 | 8813 ft | 277 kts | 57° |
| 2026-04-22 12:55 | 24.73687 | 67.13775 | 8349 ft | 264 kts | 56° |
| 2026-04-22 12:55 | 24.74606 | 67.15457 | 8024 ft | 250 kts | 56° |
| 2026-04-22 12:56 | 24.75491 | 67.17078 | 7740 ft | 254 kts | 56° |
| 2026-04-22 12:56 | 24.76426 | 67.18795 | 7442 ft | 267 kts | 56° |
| 2026-04-22 12:56 | 24.77389 | 67.20569 | 7117 ft | 272 kts | 57° |
| 2026-04-22 12:56 | 24.78363 | 67.22370 | 6791 ft | 273 kts | 56° |
| 2026-04-22 12:57 | 24.79332 | 67.24163 | 6469 ft | 273 kts | 56° |
| 2026-04-22 12:57 | 24.80308 | 67.25972 | 6153 ft | 273 kts | 56° |
| 2026-04-22 12:57 | 24.81264 | 67.27746 | 5820 ft | 273 kts | 55° |
| 2026-04-22 12:57 | 24.82234 | 67.29545 | 5502 ft | 273 kts | 57° |
| 2026-04-22 12:58 | 24.83204 | 67.31347 | 5188 ft | 272 kts | 56° |
| 2026-04-22 12:58 | 24.84146 | 67.33100 | 5123 ft | 263 kts | 56° |
| 2026-04-22 12:58 | 24.85095 | 67.34861 | 4784 ft | 269 kts | 55° |
| 2026-04-22 12:58 | 24.86046 | 67.36627 | 4493 ft | 271 kts | 56° |
| 2026-04-22 12:59 | 24.87080 | 67.38269 | 4153 ft | 255 kts | 38° |
| 2026-04-22 12:59 | 24.88623 | 67.39173 | 3869 ft | 258 kts | 9° |
| 2026-04-22 12:59 | 24.90418 | 67.39316 | 3651 ft | 259 kts | 348° |
| 2026-04-22 12:59 | 24.92155 | 67.38857 | 3425 ft | 254 kts | 341° |
| 2026-04-22 13:00 | 24.93683 | 67.37988 | 3062 ft | 243 kts | 314° |
| 2026-04-22 13:00 | 24.94504 | 67.36457 | 2982 ft | 233 kts | 283° |
| 2026-04-22 13:00 | 24.94622 | 67.34701 | 2680 ft | 233 kts | 270° |
| 2026-04-22 13:00 | 24.94509 | 67.32905 | 2445 ft | 228 kts | 263° |
| 2026-04-22 13:01 | 24.94275 | 67.31245 | 2387 ft | 216 kts | 261° |
| 2026-04-22 13:01 | 24.93943 | 67.29667 | 2313 ft | 205 kts | 257° |
| 2026-04-22 13:01 | 24.93574 | 67.28199 | 2178 ft | 190 kts | 255° |
| 2026-04-22 13:01 | 24.93237 | 67.26873 | 2071 ft | 169 kts | 256° |
| 2026-04-22 13:02 | 24.92922 | 67.25625 | 2100 ft | 174 kts | 256° |
| 2026-04-22 13:02 | 24.92603 | 67.24362 | 2040 ft | 165 kts | 257° |
| 2026-04-22 13:02 | 24.92302 | 67.23168 | 1973 ft | 159 kts | 257° |
| 2026-04-22 13:02 | 24.92022 | 67.21937 | 1398 ft | 173 kts | 258° |
| 2026-04-22 13:03 | 24.91774 | 67.20707 | 969 ft | 153 kts | 251° |
| 2026-04-22 13:03 | 24.91423 | 67.19598 | 719 ft | 155 kts | 254° |
| 2026-04-22 13:03 | 24.91139 | 67.18487 | 464 ft | 144 kts | 253° |
| 2026-04-22 13:03 | 24.90866 | 67.17462 | 155 ft | 133 kts | 254° |
| 2026-04-22 13:04 | 24.90643 | 67.16564 | 110 ft | 111 kts | 255° |
| 2026-04-22 13:04 | 24.90484 | 67.15909 | 110 ft | 66 kts | 255° |
| 2026-04-22 13:04 | 24.90391 | 67.15564 | 110 ft | 36 kts | 255° |
| 2026-04-22 13:04 | 24.90327 | 67.15311 | 109 ft | 33 kts | 255° |
| 2026-04-22 13:05 | 24.90269 | 67.15088 | 109 ft | 27 kts | 246° |
| 2026-04-22 13:05 | 24.90172 | 67.14949 | 108 ft | 19 kts | 226° |
| 2026-04-22 13:05 | 24.90087 | 67.14875 | 107 ft | 10 kts | 189° |
| 2026-04-22 13:05 | 24.90084 | 67.14875 | 107 ft | 0 kts | 184° |
| 2026-04-22 13:06 | 24.90067 | 67.14876 | 107 ft | 8 kts | 172° |
| 2026-04-22 13:06 | 24.90032 | 67.14921 | 107 ft | 8 kts | 93° |
| 2026-04-22 13:07 | 24.90044 | 67.14989 | 107 ft | 10 kts | 76° |
| 2026-04-22 13:07 | 24.90064 | 67.15067 | 108 ft | 11 kts | 72° |
| 2026-04-22 13:07 | 24.90087 | 67.15159 | 108 ft | 15 kts | 75° |
| 2026-04-22 13:07 | 24.90116 | 67.15271 | 107 ft | 15 kts | 74° |
| 2026-04-22 13:08 | 24.90143 | 67.15383 | 108 ft | 15 kts | 75° |
| 2026-04-22 13:08 | 24.90172 | 67.15493 | 108 ft | 15 kts | 73° |
| 2026-04-22 13:08 | 24.90200 | 67.15605 | 108 ft | 15 kts | 74° |
| 2026-04-22 13:08 | 24.90229 | 67.15717 | 107 ft | 15 kts | 71° |
| 2026-04-22 13:09 | 24.90255 | 67.15823 | 107 ft | 14 kts | 74° |
| 2026-04-22 13:09 | 24.90276 | 67.15907 | 107 ft | 0 kts | 73° |
| 2026-04-22 13:10 | 24.90285 | 67.15942 | 107 ft | 17 kts | 74° |
| 2026-04-22 13:10 | 24.90323 | 67.16093 | 107 ft | 21 kts | 74° |
| 2026-04-22 13:10 | 24.90363 | 67.16249 | 107 ft | 21 kts | 75° |
| 2026-04-22 13:11 | 24.90402 | 67.16404 | 107 ft | 21 kts | 73° |
| 2026-04-22 13:11 | 24.90440 | 67.16556 | 107 ft | 18 kts | 75° |
| 2026-04-22 13:11 | 24.90436 | 67.16685 | 108 ft | 18 kts | 134° |
| 2026-04-22 13:11 | 24.90359 | 67.16742 | 108 ft | 12 kts | 137° |
| 2026-04-22 13:12 | 24.90326 | 67.16793 | 109 ft | 6 kts | 125° |
| 2026-04-22 13:12 | 24.90310 | 67.16818 | 109 ft | 2 kts | 124° |
| 2026-04-22 13:12 | 24.90300 | 67.16835 | 108 ft | 0 kts | 124° |